sensor_id;sensor_type;location;lat;lon;timestamp;pressure;altitude;pressure_sealevel;temperature;humidity
68230;BME280;55048;52.220;5.160;2023-09-19T00:00:56;100381.19;;;15.27;88.82
68230;BME280;55048;52.220;5.160;2023-09-19T00:03:21;100227.03;;;14.27;88.81
68230;BME280;55048;52.220;5.160;2023-09-19T00:05:48;100537.97;;;16.14;88.85
68230;BME280;55048;52.220;5.160;2023-09-19T00:08:15;100580.69;;;16.39;89.19
68230;BME280;55048;52.220;5.160;2023-09-19T00:10:41;100582.03;;;16.37;89.33
68230;BME280;55048;52.220;5.160;2023-09-19T00:13:07;100499.13;;;15.72;89.06
68230;BME280;55048;52.220;5.160;2023-09-19T00:15:41;100555.47;;;16.06;89.25
68230;BME280;55048;52.220;5.160;2023-09-19T00:18:07;100591.75;;;16.32;89.47
68230;BME280;55048;52.220;5.160;2023-09-19T00:20:36;100593.09;;;16.30;89.94
68230;BME280;55048;52.220;5.160;2023-09-19T00:23:02;100369.66;;;14.88;89.60
68230;BME280;55048;52.220;5.160;2023-09-19T00:25:29;100593.47;;;16.18;90.09
68230;BME280;55048;52.220;5.160;2023-09-19T00:27:54;100593.41;;;16.28;90.20
68230;BME280;55048;52.220;5.160;2023-09-19T00:30:20;100552.00;;;16.00;90.10
68230;BME280;55048;52.220;5.160;2023-09-19T00:32:50;100544.84;;;15.91;91.03
68230;BME280;55048;52.220;5.160;2023-09-19T00:35:22;100572.38;;;16.01;91.45
68230;BME280;55048;52.220;5.160;2023-09-19T00:37:51;100595.88;;;16.20;91.42
68230;BME280;55048;52.220;5.160;2023-09-19T00:40:17;100480.81;;;15.35;91.56
68230;BME280;55048;52.220;5.160;2023-09-19T00:42:44;100580.16;;;16.03;91.10
68230;BME280;55048;52.220;5.160;2023-09-19T00:45:11;100380.44;;;14.72;90.97
68230;BME280;55048;52.220;5.160;2023-09-19T00:47:39;100574.81;;;15.98;91.27
68230;BME280;55048;52.220;5.160;2023-09-19T00:50:06;100610.41;;;16.08;92.14
68230;BME280;55048;52.220;5.160;2023-09-19T00:52:39;100610.41;;;16.08;91.90
68230;BME280;55048;52.220;5.160;2023-09-19T00:55:07;100620.91;;;16.05;91.97
68230;BME280;55048;52.220;5.160;2023-09-19T00:57:33;100600.88;;;15.92;92.42
68230;BME280;55048;52.220;5.160;2023-09-19T01:00:01;100501.50;;;15.19;92.61
68230;BME280;55048;52.220;5.160;2023-09-19T01:02:37;100618.78;;;16.02;92.25
68230;BME280;55048;52.220;5.160;2023-09-19T01:05:03;100559.19;;;15.66;92.16
68230;BME280;55048;52.220;5.160;2023-09-19T01:07:32;100597.97;;;15.84;91.99
68230;BME280;55048;52.220;5.160;2023-09-19T01:09:59;100589.94;;;15.84;92.27
68230;BME280;55048;52.220;5.160;2023-09-19T01:12:34;100283.59;;;13.95;91.85
68230;BME280;55048;52.220;5.160;2023-09-19T01:15:13;100621.97;;;16.04;91.97
68230;BME280;55048;52.220;5.160;2023-09-19T01:17:51;100554.38;;;15.63;92.07
68230;BME280;55048;52.220;5.160;2023-09-19T01:21:36;100548.00;;;15.48;91.85
68230;BME280;55048;52.220;5.160;2023-09-19T01:26:05;100572.06;;;15.64;91.71
68230;BME280;55048;52.220;5.160;2023-09-19T01:28:51;100536.00;;;15.36;91.65
68230;BME280;55048;52.220;5.160;2023-09-19T01:31:23;100523.91;;;15.38;91.65
68230;BME280;55048;52.220;5.160;2023-09-19T01:33:57;100613.75;;;15.95;91.77
68230;BME280;55048;52.220;5.160;2023-09-19T01:36:32;100607.63;;;15.85;91.83
68230;BME280;55048;52.220;5.160;2023-09-19T01:39:06;100632.50;;;15.95;92.13
68230;BME280;55048;52.220;5.160;2023-09-19T01:42:13;100625.53;;;15.94;91.75
68230;BME280;55048;52.220;5.160;2023-09-19T01:44:59;100630.88;;;15.94;91.65
68230;BME280;55048;52.220;5.160;2023-09-19T01:47:34;100598.53;;;15.75;91.30
68230;BME280;55048;52.220;5.160;2023-09-19T01:52:36;100574.00;;;15.48;90.81
68230;BME280;55048;52.220;5.160;2023-09-19T01:55:09;100540.59;;;15.30;90.95
68230;BME280;55048;52.220;5.160;2023-09-19T01:57:42;100534.72;;;15.23;90.92
68230;BME280;55048;52.220;5.160;2023-09-19T02:00:12;100515.25;;;15.07;90.62
68230;BME280;55048;52.220;5.160;2023-09-19T02:02:42;100631.53;;;15.81;90.70
68230;BME280;55048;52.220;5.160;2023-09-19T02:05:09;100570.50;;;15.47;90.37
68230;BME280;55048;52.220;5.160;2023-09-19T02:07:35;100549.69;;;15.34;90.44
68230;BME280;55048;52.220;5.160;2023-09-19T02:10:06;100613.34;;;15.63;90.37
68230;BME280;55048;52.220;5.160;2023-09-19T02:12:32;100618.44;;;15.69;89.91
68230;BME280;55048;52.220;5.160;2023-09-19T02:15:02;100619.19;;;15.75;89.80
68230;BME280;55048;52.220;5.160;2023-09-19T02:17:28;100599.16;;;15.52;89.73
68230;BME280;55048;52.220;5.160;2023-09-19T02:19:56;100603.69;;;15.56;89.19
68230;BME280;55048;52.220;5.160;2023-09-19T02:22:22;100602.13;;;15.50;89.33
68230;BME280;55048;52.220;5.160;2023-09-19T02:24:48;100598.66;;;15.50;88.81
68230;BME280;55048;52.220;5.160;2023-09-19T02:27:13;100473.84;;;14.64;88.69
68230;BME280;55048;52.220;5.160;2023-09-19T02:29:41;100588.00;;;15.35;88.77
68230;BME280;55048;52.220;5.160;2023-09-19T02:32:08;100621.94;;;15.54;88.90
68230;BME280;55048;52.220;5.160;2023-09-19T02:34:36;100640.69;;;15.65;88.77
68230;BME280;55048;52.220;5.160;2023-09-19T02:37:04;100636.69;;;15.52;89.34
68230;BME280;55048;52.220;5.160;2023-09-19T02:39:34;100642.31;;;15.50;89.09
68230;BME280;55048;52.220;5.160;2023-09-19T02:42:00;100609.66;;;15.38;89.31
68230;BME280;55048;52.220;5.160;2023-09-19T02:44:25;100661.34;;;15.54;89.34
68230;BME280;55048;52.220;5.160;2023-09-19T02:46:51;100557.53;;;15.05;89.43
68230;BME280;55048;52.220;5.160;2023-09-19T02:49:16;100634.03;;;15.47;89.39
68230;BME280;55048;52.220;5.160;2023-09-19T02:51:46;100586.69;;;15.22;89.39
68230;BME280;55048;52.220;5.160;2023-09-19T02:54:12;100418.56;;;14.08;89.18
68230;BME280;55048;52.220;5.160;2023-09-19T02:56:38;100638.03;;;15.54;89.67
68230;BME280;55048;52.220;5.160;2023-09-19T02:59:04;100491.00;;;14.63;89.67
68230;BME280;55048;52.220;5.160;2023-09-19T03:01:29;100619.81;;;15.51;89.68
68230;BME280;55048;52.220;5.160;2023-09-19T03:03:55;100584.50;;;15.29;89.73
68230;BME280;55048;52.220;5.160;2023-09-19T03:06:21;100572.22;;;15.23;89.79
68230;BME280;55048;52.220;5.160;2023-09-19T03:08:47;100603.78;;;15.36;89.92
68230;BME280;55048;52.220;5.160;2023-09-19T03:11:14;100522.00;;;14.84;89.69
68230;BME280;55048;52.220;5.160;2023-09-19T03:13:43;100645.53;;;15.47;89.66
68230;BME280;55048;52.220;5.160;2023-09-19T03:16:11;100594.19;;;15.30;89.98
68230;BME280;55048;52.220;5.160;2023-09-19T03:18:37;100632.97;;;15.43;90.36
68230;BME280;55048;52.220;5.160;2023-09-19T03:21:03;100551.69;;;14.98;89.56
68230;BME280;55048;52.220;5.160;2023-09-19T03:23:29;100644.19;;;15.55;89.96
68230;BME280;55048;52.220;5.160;2023-09-19T03:25:55;100490.75;;;14.64;89.56
68230;BME280;55048;52.220;5.160;2023-09-19T03:28:24;100629.19;;;15.54;89.62
68230;BME280;55048;52.220;5.160;2023-09-19T03:31:01;100512.94;;;14.75;89.40
68230;BME280;55048;52.220;5.160;2023-09-19T03:33:27;100594.19;;;15.25;89.22
68230;BME280;55048;52.220;5.160;2023-09-19T03:35:53;100557.03;;;14.98;90.28
68230;BME280;55048;52.220;5.160;2023-09-19T03:38:20;100500.88;;;14.67;89.96
68230;BME280;55048;52.220;5.160;2023-09-19T03:40:47;100485.66;;;14.47;90.55
68230;BME280;55048;52.220;5.160;2023-09-19T03:43:14;100512.38;;;14.73;90.39
68230;BME280;55048;52.220;5.160;2023-09-19T03:45:40;100470.16;;;14.39;90.20
68230;BME280;55048;52.220;5.160;2023-09-19T03:48:10;100584.63;;;14.98;90.74
68230;BME280;55048;52.220;5.160;2023-09-19T03:50:35;100623.34;;;15.37;90.36
68230;BME280;55048;52.220;5.160;2023-09-19T03:53:01;100598.22;;;15.22;90.42
68230;BME280;55048;52.220;5.160;2023-09-19T03:55:27;100599.81;;;15.18;90.15
68230;BME280;55048;52.220;5.160;2023-09-19T03:57:53;100599.31;;;15.16;90.12
68230;BME280;55048;52.220;5.160;2023-09-19T04:00:18;100629.53;;;15.27;90.25
68230;BME280;55048;52.220;5.160;2023-09-19T04:02:47;100619.38;;;15.24;89.85
68230;BME280;55048;52.220;5.160;2023-09-19T04:05:13;100578.19;;;14.94;89.94
68230;BME280;55048;52.220;5.160;2023-09-19T04:07:39;100549.34;;;14.71;90.08
68230;BME280;55048;52.220;5.160;2023-09-19T04:10:05;100280.97;;;12.93;90.04
68230;BME280;55048;52.220;5.160;2023-09-19T04:12:31;100661.41;;;15.28;90.58
68230;BME280;55048;52.220;5.160;2023-09-19T04:14:57;100667.59;;;15.19;90.64
68230;BME280;55048;52.220;5.160;2023-09-19T04:17:23;100621.31;;;14.98;90.27
68230;BME280;55048;52.220;5.160;2023-09-19T04:19:50;100620.75;;;15.06;90.41
68230;BME280;55048;52.220;5.160;2023-09-19T04:22:16;100615.16;;;14.92;90.75
68230;BME280;55048;52.220;5.160;2023-09-19T04:24:41;100656.63;;;15.20;90.62
68230;BME280;55048;52.220;5.160;2023-09-19T04:27:06;100679.63;;;15.37;90.97
68230;BME280;55048;52.220;5.160;2023-09-19T04:29:32;100645.91;;;15.15;91.14
68230;BME280;55048;52.220;5.160;2023-09-19T04:31:58;100651.03;;;15.12;91.02
68230;BME280;55048;52.220;5.160;2023-09-19T04:34:24;100637.91;;;15.00;91.36
68230;BME280;55048;52.220;5.160;2023-09-19T04:36:50;100556.56;;;14.45;91.45
68230;BME280;55048;52.220;5.160;2023-09-19T04:39:15;100621.56;;;14.91;91.57
68230;BME280;55048;52.220;5.160;2023-09-19T04:41:42;100680.72;;;15.15;91.02
68230;BME280;55048;52.220;5.160;2023-09-19T04:44:07;100690.38;;;15.21;91.57
68230;BME280;55048;52.220;5.160;2023-09-19T04:46:36;100655.03;;;14.99;91.61
68230;BME280;55048;52.220;5.160;2023-09-19T04:49:01;100637.63;;;14.91;91.74
68230;BME280;55048;52.220;5.160;2023-09-19T04:51:27;100602.59;;;14.72;91.62
68230;BME280;55048;52.220;5.160;2023-09-19T04:53:58;100626.16;;;14.80;91.60
68230;BME280;55048;52.220;5.160;2023-09-19T04:56:23;100565.38;;;14.40;91.80
68230;BME280;55048;52.220;5.160;2023-09-19T04:58:49;100674.84;;;15.13;91.23
68230;BME280;55048;52.220;5.160;2023-09-19T05:01:14;100524.47;;;14.09;91.48
68230;BME280;55048;52.220;5.160;2023-09-19T05:03:40;100647.56;;;14.75;91.34
68230;BME280;55048;52.220;5.160;2023-09-19T05:06:06;100648.88;;;14.78;91.28
68230;BME280;55048;52.220;5.160;2023-09-19T05:08:31;100681.53;;;15.00;91.35
68230;BME280;55048;52.220;5.160;2023-09-19T05:10:57;100621.06;;;14.64;90.78
68230;BME280;55048;52.220;5.160;2023-09-19T05:13:22;100680.50;;;15.01;91.20
68230;BME280;55048;52.220;5.160;2023-09-19T05:15:49;100683.69;;;15.09;91.50
68230;BME280;55048;52.220;5.160;2023-09-19T05:18:17;100546.66;;;14.10;91.37
68230;BME280;55048;52.220;5.160;2023-09-19T05:20:43;100622.69;;;14.60;91.57
68230;BME280;55048;52.220;5.160;2023-09-19T05:23:09;100558.16;;;14.20;91.63
68230;BME280;55048;52.220;5.160;2023-09-19T05:25:38;100686.66;;;14.87;92.28
68230;BME280;55048;52.220;5.160;2023-09-19T05:28:05;100662.56;;;14.71;92.46
68230;BME280;55048;52.220;5.160;2023-09-19T05:30:32;100687.47;;;15.02;92.23
68230;BME280;55048;52.220;5.160;2023-09-19T05:32:58;100696.81;;;15.00;92.00
68230;BME280;55048;52.220;5.160;2023-09-19T05:35:24;100576.09;;;14.20;92.70
68230;BME280;55048;52.220;5.160;2023-09-19T05:37:51;100690.94;;;15.03;92.21
68230;BME280;55048;52.220;5.160;2023-09-19T05:40:19;100558.16;;;14.05;92.55
68230;BME280;55048;52.220;5.160;2023-09-19T05:42:46;100656.94;;;14.68;92.58
68230;BME280;55048;52.220;5.160;2023-09-19T05:45:12;100571.00;;;14.18;92.71
68230;BME280;55048;52.220;5.160;2023-09-19T05:47:40;100639.28;;;14.62;92.58
68230;BME280;55048;52.220;5.160;2023-09-19T05:50:11;100673.53;;;14.80;92.52
68230;BME280;55048;52.220;5.160;2023-09-19T05:52:37;100682.66;;;14.84;93.04
68230;BME280;55048;52.220;5.160;2023-09-19T05:55:06;100707.81;;;15.03;93.23
68230;BME280;55048;52.220;5.160;2023-09-19T05:57:36;100652.13;;;14.65;92.84
68230;BME280;55048;52.220;5.160;2023-09-19T06:00:02;100500.91;;;13.70;92.72
68230;BME280;55048;52.220;5.160;2023-09-19T06:02:37;100723.34;;;15.12;93.07
68230;BME280;55048;52.220;5.160;2023-09-19T06:05:06;100676.75;;;14.77;93.32
68230;BME280;55048;52.220;5.160;2023-09-19T06:07:35;100673.25;;;14.76;93.09
68230;BME280;55048;52.220;5.160;2023-09-19T06:10:06;100732.44;;;15.16;93.06
68230;BME280;55048;52.220;5.160;2023-09-19T06:12:44;100696.03;;;14.94;92.80
68230;BME280;55048;52.220;5.160;2023-09-19T06:15:11;100666.31;;;14.80;92.86
68230;BME280;55048;52.220;5.160;2023-09-19T06:17:49;100644.34;;;14.58;92.81
68230;BME280;55048;52.220;5.160;2023-09-19T06:20:16;100684.22;;;15.00;92.92
68230;BME280;55048;52.220;5.160;2023-09-19T06:22:42;100599.38;;;14.50;92.99
68230;BME280;55048;52.220;5.160;2023-09-19T06:25:12;100644.34;;;14.84;93.37
68230;BME280;55048;52.220;5.160;2023-09-19T06:27:38;100679.66;;;15.16;92.74
68230;BME280;55048;52.220;5.160;2023-09-19T06:30:08;100711.47;;;15.43;93.13
68230;BME280;55048;52.220;5.160;2023-09-19T06:32:34;100643.50;;;15.09;92.53
68230;BME280;55048;52.220;5.160;2023-09-19T06:34:59;100641.66;;;15.04;93.37
68230;BME280;55048;52.220;5.160;2023-09-19T06:37:27;100644.88;;;15.11;92.47
68230;BME280;55048;52.220;5.160;2023-09-19T06:39:53;100607.94;;;14.98;92.12
68230;BME280;55048;52.220;5.160;2023-09-19T06:42:18;100686.81;;;15.46;92.39
68230;BME280;55048;52.220;5.160;2023-09-19T06:44:44;100594.56;;;14.88;92.73
68230;BME280;55048;52.220;5.160;2023-09-19T06:47:09;100647.22;;;15.28;92.40
68230;BME280;55048;52.220;5.160;2023-09-19T06:49:36;100695.41;;;15.53;92.93
68230;BME280;55048;52.220;5.160;2023-09-19T06:52:01;100697.81;;;15.50;93.79
68230;BME280;55048;52.220;5.160;2023-09-19T06:54:28;100628.78;;;15.16;92.31
68230;BME280;55048;52.220;5.160;2023-09-19T06:56:56;100711.19;;;15.70;93.32
68230;BME280;55048;52.220;5.160;2023-09-19T06:59:24;100334.16;;;13.46;92.45
68230;BME280;55048;52.220;5.160;2023-09-19T07:01:49;100727.22;;;15.91;93.17
68230;BME280;55048;52.220;5.160;2023-09-19T07:04:16;100670.19;;;15.60;93.25
68230;BME280;55048;52.220;5.160;2023-09-19T07:06:42;100590.72;;;15.14;93.51
68230;BME280;55048;52.220;5.160;2023-09-19T07:09:08;100664.81;;;15.60;93.70
68230;BME280;55048;52.220;5.160;2023-09-19T07:11:34;100677.94;;;15.66;93.71
68230;BME280;55048;52.220;5.160;2023-09-19T07:13:59;100685.16;;;15.76;93.52
68230;BME280;55048;52.220;5.160;2023-09-19T07:16:28;100653.09;;;15.40;93.79
68230;BME280;55048;52.220;5.160;2023-09-19T07:18:55;100683.84;;;15.68;94.50
68230;BME280;55048;52.220;5.160;2023-09-19T07:21:22;100727.97;;;16.01;93.38
68230;BME280;55048;52.220;5.160;2023-09-19T07:23:48;100745.06;;;16.16;93.20
68230;BME280;55048;52.220;5.160;2023-09-19T07:26:13;100684.06;;;15.82;92.87
68230;BME280;55048;52.220;5.160;2023-09-19T07:28:39;100654.66;;;15.51;92.84
68230;BME280;55048;52.220;5.160;2023-09-19T07:31:04;100746.63;;;16.22;92.41
68230;BME280;55048;52.220;5.160;2023-09-19T07:33:30;100689.41;;;15.87;92.49
68230;BME280;55048;52.220;5.160;2023-09-19T07:35:56;100691.47;;;16.05;91.82
68230;BME280;55048;52.220;5.160;2023-09-19T07:38:21;100641.41;;;15.80;91.12
68230;BME280;55048;52.220;5.160;2023-09-19T07:40:48;100710.84;;;16.42;91.06
68230;BME280;55048;52.220;5.160;2023-09-19T07:43:13;100756.81;;;16.69;90.94
68230;BME280;55048;52.220;5.160;2023-09-19T07:45:39;100716.44;;;16.45;90.51
68230;BME280;55048;52.220;5.160;2023-09-19T07:48:05;100621.63;;;15.76;90.74
68230;BME280;55048;52.220;5.160;2023-09-19T07:50:34;100721.69;;;16.21;90.79
68230;BME280;55048;52.220;5.160;2023-09-19T07:53:02;100736.88;;;16.46;90.90
68230;BME280;55048;52.220;5.160;2023-09-19T07:55:30;100770.03;;;16.66;90.64
68230;BME280;55048;52.220;5.160;2023-09-19T07:57:55;100650.75;;;15.93;90.29
68230;BME280;55048;52.220;5.160;2023-09-19T08:00:21;100738.06;;;16.64;90.27
68230;BME280;55048;52.220;5.160;2023-09-19T08:02:47;100676.28;;;16.30;91.06
68230;BME280;55048;52.220;5.160;2023-09-19T08:05:13;100721.84;;;16.85;89.38
68230;BME280;55048;52.220;5.160;2023-09-19T08:07:43;100761.34;;;17.18;89.45
68230;BME280;55048;52.220;5.160;2023-09-19T08:10:09;100757.09;;;17.12;89.75
68230;BME280;55048;52.220;5.160;2023-09-19T08:12:44;100628.41;;;16.47;89.52
68230;BME280;55048;52.220;5.160;2023-09-19T08:15:20;100755.34;;;17.26;88.17
68230;BME280;55048;52.220;5.160;2023-09-19T08:17:46;100750.72;;;17.32;88.38
68230;BME280;55048;52.220;5.160;2023-09-19T08:20:12;100764.38;;;17.41;88.48
68230;BME280;55048;52.220;5.160;2023-09-19T08:22:43;100604.25;;;16.47;88.23
68230;BME280;55048;52.220;5.160;2023-09-19T08:25:11;100755.34;;;17.55;87.94
68230;BME280;55048;52.220;5.160;2023-09-19T08:27:36;100720.41;;;17.26;87.81
68230;BME280;55048;52.220;5.160;2023-09-19T08:30:02;100736.56;;;17.50;87.89
68230;BME280;55048;52.220;5.160;2023-09-19T08:32:28;100743.66;;;17.65;87.66
68230;BME280;55048;52.220;5.160;2023-09-19T08:34:54;100739.31;;;17.69;87.09
68230;BME280;55048;52.220;5.160;2023-09-19T08:37:19;100717.63;;;17.60;87.27
68230;BME280;55048;52.220;5.160;2023-09-19T08:39:45;100401.28;;;15.69;86.32
68230;BME280;55048;52.220;5.160;2023-09-19T08:42:10;100695.56;;;17.64;86.03
68230;BME280;55048;52.220;5.160;2023-09-19T08:44:38;100736.88;;;17.97;85.72
68230;BME280;55048;52.220;5.160;2023-09-19T08:47:10;100739.50;;;18.02;85.63
68230;BME280;55048;52.220;5.160;2023-09-19T08:52:39;100704.06;;;17.95;84.24
68230;BME280;55048;52.220;5.160;2023-09-19T08:55:06;100728.63;;;18.12;84.37
68230;BME280;55048;52.220;5.160;2023-09-19T08:57:35;100720.16;;;18.00;83.39
68230;BME280;55048;52.220;5.160;2023-09-19T09:00:04;100743.75;;;18.27;83.60
68230;BME280;55048;52.220;5.160;2023-09-19T09:02:40;100768.94;;;18.36;83.71
68230;BME280;55048;52.220;5.160;2023-09-19T09:05:08;100749.50;;;18.20;83.76
68230;BME280;55048;52.220;5.160;2023-09-19T09:07:38;100666.25;;;17.62;83.11
68230;BME280;55048;52.220;5.160;2023-09-19T09:10:04;100673.16;;;17.73;82.71
68230;BME280;55048;52.220;5.160;2023-09-19T09:12:30;100688.22;;;17.93;82.33
68230;BME280;55048;52.220;5.160;2023-09-19T09:14:56;100696.88;;;18.09;81.86
68230;BME280;55048;52.220;5.160;2023-09-19T09:17:26;100716.16;;;17.97;81.75
68230;BME280;55048;52.220;5.160;2023-09-19T09:19:54;100581.28;;;17.18;80.77
68230;BME280;55048;52.220;5.160;2023-09-19T09:22:20;100724.03;;;18.13;81.68
68230;BME280;55048;52.220;5.160;2023-09-19T09:24:56;100728.03;;;18.15;81.47
68230;BME280;55048;52.220;5.160;2023-09-19T09:27:24;100734.88;;;18.26;81.24
68230;BME280;55048;52.220;5.160;2023-09-19T09:29:50;100658.31;;;17.76;80.69
68230;BME280;55048;52.220;5.160;2023-09-19T09:32:34;100734.94;;;18.02;81.92
68230;BME280;55048;52.220;5.160;2023-09-19T09:35:07;100677.97;;;17.71;81.16
68230;BME280;55048;52.220;5.160;2023-09-19T09:37:34;100721.41;;;18.07;81.23
68230;BME280;55048;52.220;5.160;2023-09-19T09:40:04;100599.97;;;17.28;81.75
68230;BME280;55048;52.220;5.160;2023-09-19T09:42:42;100582.88;;;17.19;82.16
68230;BME280;55048;52.220;5.160;2023-09-19T09:45:21;100693.69;;;18.07;82.06
68230;BME280;55048;52.220;5.160;2023-09-19T09:47:59;100719.91;;;18.39;81.52
68230;BME280;55048;52.220;5.160;2023-09-19T09:50:35;100727.91;;;18.63;80.54
68230;BME280;55048;52.220;5.160;2023-09-19T09:53:21;100704.97;;;18.66;79.95
68230;BME280;55048;52.220;5.160;2023-09-19T09:56:02;100731.13;;;18.84;80.33
68230;BME280;55048;52.220;5.160;2023-09-19T09:58:33;100479.47;;;17.17;79.66
68230;BME280;55048;52.220;5.160;2023-09-19T10:00:59;100673.41;;;18.33;79.94
68230;BME280;55048;52.220;5.160;2023-09-19T10:03:35;100700.59;;;18.13;80.38
68230;BME280;55048;52.220;5.160;2023-09-19T10:06:08;100682.47;;;18.00;80.20
68230;BME280;55048;52.220;5.160;2023-09-19T10:11:30;100675.88;;;18.11;79.34
68230;BME280;55048;52.220;5.160;2023-09-19T10:13:58;100699.31;;;18.48;79.55
68230;BME280;55048;52.220;5.160;2023-09-19T10:16:30;100680.31;;;18.40;80.05
68230;BME280;55048;52.220;5.160;2023-09-19T10:18:58;100655.69;;;18.46;79.08
68230;BME280;55048;52.220;5.160;2023-09-19T10:21:25;100715.66;;;18.90;78.48
68230;BME280;55048;52.220;5.160;2023-09-19T10:23:58;100657.56;;;18.65;78.74
68230;BME280;55048;52.220;5.160;2023-09-19T10:26:27;100646.78;;;18.83;77.79
68230;BME280;55048;52.220;5.160;2023-09-19T10:28:56;100707.66;;;19.31;76.64
68230;BME280;55048;52.220;5.160;2023-09-19T10:31:23;100561.38;;;18.65;76.30
68230;BME280;55048;52.220;5.160;2023-09-19T10:33:51;100604.28;;;18.80;76.28
68230;BME280;55048;52.220;5.160;2023-09-19T10:36:19;100530.13;;;18.36;76.06
68230;BME280;55048;52.220;5.160;2023-09-19T10:38:46;100691.41;;;19.36;75.79
68230;BME280;55048;52.220;5.160;2023-09-19T10:41:14;100701.56;;;19.53;75.93
68230;BME280;55048;52.220;5.160;2023-09-19T10:43:42;100461.88;;;18.14;74.81
68230;BME280;55048;52.220;5.160;2023-09-19T10:46:09;100583.75;;;19.12;74.73
68230;BME280;55048;52.220;5.160;2023-09-19T10:48:38;100587.72;;;19.15;74.90
68230;BME280;55048;52.220;5.160;2023-09-19T10:51:16;100654.94;;;19.80;74.81
68230;BME280;55048;52.220;5.160;2023-09-19T10:53:53;100634.81;;;19.86;73.88
68230;BME280;55048;52.220;5.160;2023-09-19T10:56:26;100544.44;;;19.47;73.27
68230;BME280;55048;52.220;5.160;2023-09-19T10:59:06;100643.59;;;20.05;72.27
68230;BME280;55048;52.220;5.160;2023-09-19T11:02:15;100656.53;;;20.17;72.79
68230;BME280;55048;52.220;5.160;2023-09-19T11:04:42;100566.91;;;19.56;71.98
68230;BME280;55048;52.220;5.160;2023-09-19T11:07:12;100668.66;;;20.20;73.07
68230;BME280;55048;52.220;5.160;2023-09-19T11:09:46;100650.47;;;20.11;73.48
68230;BME280;55048;52.220;5.160;2023-09-19T11:15:02;100654.75;;;20.12;73.20
68230;BME280;55048;52.220;5.160;2023-09-19T11:17:31;100647.88;;;20.06;72.98
68230;BME280;55048;52.220;5.160;2023-09-19T11:30:34;100606.69;;;19.78;71.48
68230;BME280;55048;52.220;5.160;2023-09-19T11:36:02;100601.41;;;19.73;71.89
68230;BME280;55048;52.220;5.160;2023-09-19T11:46:34;100600.97;;;20.16;71.38
68230;BME280;55048;52.220;5.160;2023-09-19T11:49:07;100616.97;;;20.12;71.69
68230;BME280;55048;52.220;5.160;2023-09-19T11:51:40;100592.50;;;19.95;70.50
68230;BME280;55048;52.220;5.160;2023-09-19T11:54:10;100640.97;;;20.36;71.53
68230;BME280;55048;52.220;5.160;2023-09-19T11:56:43;100646.88;;;20.38;70.48
68230;BME280;55048;52.220;5.160;2023-09-19T11:59:09;100586.44;;;19.90;71.67
68230;BME280;55048;52.220;5.160;2023-09-19T12:01:37;100583.75;;;19.90;71.30
68230;BME280;55048;52.220;5.160;2023-09-19T12:04:11;100645.06;;;20.11;71.37
68230;BME280;55048;52.220;5.160;2023-09-19T12:06:37;100620.69;;;20.03;71.39
68230;BME280;55048;52.220;5.160;2023-09-19T12:09:12;100647.88;;;20.06;72.25
68230;BME280;55048;52.220;5.160;2023-09-19T12:11:42;100548.38;;;19.41;72.22
68230;BME280;55048;52.220;5.160;2023-09-19T12:14:09;100629.53;;;19.81;72.58
68230;BME280;55048;52.220;5.160;2023-09-19T12:16:35;100651.84;;;19.86;72.20
68230;BME280;55048;52.220;5.160;2023-09-19T12:19:18;100605.28;;;19.53;73.48
68230;BME280;55048;52.220;5.160;2023-09-19T12:22:03;100610.28;;;19.46;73.37
68230;BME280;55048;52.220;5.160;2023-09-19T12:24:34;100635.28;;;19.66;73.60
68230;BME280;55048;52.220;5.160;2023-09-19T12:27:05;100612.47;;;19.44;73.33
68230;BME280;55048;52.220;5.160;2023-09-19T12:29:31;100598.81;;;19.27;73.97
68230;BME280;55048;52.220;5.160;2023-09-19T12:31:58;100601.91;;;19.34;74.34
68230;BME280;55048;52.220;5.160;2023-09-19T12:34:29;100521.75;;;18.84;74.63
68230;BME280;55048;52.220;5.160;2023-09-19T12:37:14;100620.06;;;19.42;75.36
68230;BME280;55048;52.220;5.160;2023-09-19T12:39:48;100645.06;;;19.61;74.52
68230;BME280;55048;52.220;5.160;2023-09-19T12:42:15;100636.56;;;19.54;74.73
68230;BME280;55048;52.220;5.160;2023-09-19T12:44:43;100622.25;;;19.68;74.81
68230;BME280;55048;52.220;5.160;2023-09-19T12:47:14;100622.66;;;19.75;74.36
68230;BME280;55048;52.220;5.160;2023-09-19T12:52:36;100637.91;;;19.93;74.72
68230;BME280;55048;52.220;5.160;2023-09-19T12:55:02;100648.13;;;19.96;74.86
68230;BME280;55048;52.220;5.160;2023-09-19T12:57:28;100576.09;;;19.55;74.77
68230;BME280;55048;52.220;5.160;2023-09-19T12:59:54;100610.06;;;19.84;74.35
68230;BME280;55048;52.220;5.160;2023-09-19T13:02:20;100524.94;;;19.14;74.24
68230;BME280;55048;52.220;5.160;2023-09-19T13:04:53;100562.44;;;19.38;75.21
68230;BME280;55048;52.220;5.160;2023-09-19T13:10:03;100531.13;;;19.15;76.08
68230;BME280;55048;52.220;5.160;2023-09-19T13:12:36;100595.38;;;19.49;76.31
68230;BME280;55048;52.220;5.160;2023-09-19T13:15:12;100583.88;;;19.57;75.62
68230;BME280;55048;52.220;5.160;2023-09-19T13:17:49;100605.00;;;19.69;75.73
68230;BME280;55048;52.220;5.160;2023-09-19T13:20:25;100640.47;;;20.12;75.95
68230;BME280;55048;52.220;5.160;2023-09-19T13:22:57;100643.72;;;20.23;74.86
68230;BME280;55048;52.220;5.160;2023-09-19T13:25:33;100636.59;;;20.27;74.80
68230;BME280;55048;52.220;5.160;2023-09-19T13:28:00;100632.63;;;19.88;75.73
68230;BME280;55048;52.220;5.160;2023-09-19T13:30:29;100603.59;;;20.07;75.22
68230;BME280;55048;52.220;5.160;2023-09-19T13:33:07;100609.50;;;19.96;76.14
68230;BME280;55048;52.220;5.160;2023-09-19T13:35:35;100592.63;;;19.90;76.69
68230;BME280;55048;52.220;5.160;2023-09-19T13:38:00;100635.53;;;19.92;77.48
68230;BME280;55048;52.220;5.160;2023-09-19T13:40:26;100527.53;;;19.19;77.36